Time;durP1;ratioP1;P1;durP2;ratioP2;P2;SDS_P1;SDS_P2;PMS_P1;PMS_P2;Temp;Humidity;BMP_temperature;BMP_pressure;BME280_temperature;BME280_humidity;BME280_pressure;Samples;Min_cycle;Max_cycle;Signal;HPM_P1;HPM_P2
2022/04/20 00:00:09;;;;;;;5.00;3.83;;;;;;;7.53;75.87;101323.25;5022958;28;20228;-53
2022/04/20 00:02:35;;;;;;;6.60;3.23;;;;;;;7.56;75.69;101326.81;5025154;28;20228;-54
2022/04/20 00:05:01;;;;;;;3.10;2.80;;;;;;;7.58;75.83;101327.75;5024606;28;20773;-53
2022/04/20 00:07:34;;;;;;;3.33;3.03;;;;;;;7.59;75.40;101326.88;5024473;28;20893;-52
2022/04/20 00:10:01;;;;;;;4.30;3.53;;;;;;;7.67;75.65;101339.22;5018329;28;20309;-55
2022/04/20 00:12:32;;;;;;;2.30;2.10;;;;;;;7.65;75.46;101329.63;5024816;28;20240;-52
2022/04/20 00:14:59;;;;;;;2.97;2.60;;;;;;;7.65;75.23;101334.84;5019157;28;20232;-53
2022/04/20 00:17:30;;;;;;;3.83;2.93;;;;;;;7.60;75.77;101332.97;5023761;28;20295;-52
2022/04/20 00:19:59;;;;;;;3.33;3.03;;;;;;;7.68;75.78;101331.41;5024291;28;20224;-52
2022/04/20 00:22:25;;;;;;;4.23;2.70;;;;;;;7.74;75.55;101339.38;5024377;28;20229;-52
2022/04/20 00:24:51;;;;;;;3.40;3.07;;;;;;;7.82;75.32;101334.28;5023943;28;20299;-53
2022/04/20 00:27:23;;;;;;;3.87;3.07;;;;;;;7.81;75.45;101330.81;5024041;28;20286;-52
2022/04/20 00:29:51;;;;;;;3.20;2.90;;;;;;;7.75;75.78;101321.94;5024286;28;20719;-52
2022/04/20 00:32:18;;;;;;;3.87;2.93;;;;;;;7.72;76.08;101332.34;5023617;28;20298;-53
2022/04/20 00:34:46;;;;;;;3.70;3.17;;;;;;;7.64;76.74;101330.47;5025115;28;20338;-52
2022/04/20 00:37:12;;;;;;;4.17;3.13;;;;;;;7.61;77.02;101327.78;5025234;28;20268;-52
2022/04/20 00:39:39;;;;;;;3.60;3.30;;;;;;;7.64;77.05;101324.34;5024170;28;20308;-52
2022/04/20 00:42:06;;;;;;;3.43;3.10;;;;;;;7.62;76.97;101326.94;5025409;28;20239;-53
2022/04/20 00:44:32;;;;;;;4.30;3.00;;;;;;;7.62;77.34;101337.41;5025334;28;20338;-54
2022/04/20 00:47:00;;;;;;;2.83;2.57;;;;;;;7.59;77.11;101332.09;5025322;28;20318;-52
2022/04/20 00:49:26;;;;;;;4.50;2.80;;;;;;;7.62;77.52;101332.19;5024019;28;20228;-52
2022/04/20 00:52:09;;;;;;;4.73;2.97;;;;;;;7.62;77.54;101329.56;5025013;28;20283;-52
2022/04/20 00:54:37;;;;;;;3.80;2.90;;;;;;;7.69;77.30;101334.88;5025979;28;20343;-53
2022/04/20 00:57:05;;;;;;;6.33;3.10;;;;;;;7.67;77.38;101336.59;5028767;28;20294;-51
2022/04/20 00:59:35;;;;;;;4.60;2.90;;;;;;;7.73;76.83;101339.34;5028817;28;20249;-53
2022/04/20 01:02:07;;;;;;;7.07;3.27;;;;;;;7.74;76.65;101333.25;5024035;28;20240;-54
2022/04/20 01:04:33;;;;;;;7.13;3.83;;;;;;;7.77;77.02;101335.94;5022976;28;20286;-52
2022/04/20 01:07:00;;;;;;;6.47;4.03;;;;;;;7.74;77.41;101333.25;5044638;28;20227;-53
2022/04/20 01:09:28;;;;;;;9.23;4.40;;;;;;;7.62;77.70;101334.78;5035396;28;20754;-52
2022/04/20 01:12:02;;;;;;;7.13;3.60;;;;;;;7.55;78.26;101335.50;5028143;28;20243;-53
2022/04/20 01:14:30;;;;;;;5.53;4.50;;;;;;;7.54;78.83;101332.84;5027999;28;20256;-51
2022/04/20 01:17:04;;;;;;;6.80;3.50;;;;;;;7.51;79.01;101331.06;5028311;28;20298;-52
2022/04/20 01:19:34;;;;;;;4.13;3.00;;;;;;;7.54;79.25;101338.94;5023536;28;20765;-52
2022/04/20 01:22:01;;;;;;;5.30;3.33;;;;;;;7.56;79.09;101324.19;5027827;28;20692;-53
2022/04/20 01:24:28;;;;;;;5.37;3.17;;;;;;;7.53;78.98;101331.97;5027746;28;20232;-53
2022/04/20 01:26:54;;;;;;;3.63;2.80;;;;;;;7.55;79.06;101330.28;5027909;28;20255;-52
2022/04/20 01:29:22;;;;;;;3.17;2.87;;;;;;;7.56;79.10;101326.81;5026668;28;20228;-52
2022/04/20 01:31:49;;;;;;;4.40;2.70;;;;;;;7.57;79.35;101323.34;5027796;28;20243;-53
2022/04/20 01:34:23;;;;;;;5.67;2.90;;;;;;;7.57;79.22;101323.34;5027686;28;20776;-53
2022/04/20 01:36:50;;;;;;;3.10;2.40;;;;;;;7.59;79.14;101321.66;5027657;28;20755;-53
2022/04/20 01:39:18;;;;;;;4.03;2.73;;;;;;;7.61;79.14;101322.53;5027290;28;20525;-54
2022/04/20 01:41:52;;;;;;;5.30;3.20;;;;;;;7.65;78.99;101319.19;5028211;28;20259;-53
2022/04/20 01:44:18;;;;;;;6.57;2.90;;;;;;;7.67;78.93;101331.38;5027949;28;20244;-52
2022/04/20 01:46:45;;;;;;;3.63;2.40;;;;;;;7.55;79.04;101324.19;5027140;28;20236;-53
2022/04/20 01:49:13;;;;;;;3.87;2.37;;;;;;;7.54;79.68;101328.50;5026482;28;20290;-53
2022/04/20 01:51:50;;;;;;;3.03;2.67;;;;;;;7.53;79.97;101324.13;5007615;28;20243;-54
2022/04/20 01:54:20;;;;;;;3.07;2.60;;;;;;;7.55;80.19;101325.06;5017849;28;20529;-53
2022/04/20 01:56:48;;;;;;;2.40;2.20;;;;;;;7.54;80.52;101323.28;5027462;28;20593;-53
2022/04/20 01:59:16;;;;;;;3.03;2.73;;;;;;;7.44;80.42;101326.56;5026565;28;20698;-52
2022/04/20 02:04:31;;;;;;;4.57;3.20;;;;;;;7.47;81.37;101318.78;5039977;28;20235;-53
2022/04/20 02:06:59;;;;;;;3.10;2.80;;;;;;;7.54;81.06;101312.81;5022550;28;20233;-53
2022/04/20 02:09:26;;;;;;;4.10;2.73;;;;;;;7.53;81.44;101310.19;5026569;28;20229;-53
2022/04/20 02:12:13;;;;;;;5.57;2.67;;;;;;;7.56;81.69;101312.88;5027575;28;20382;-53
2022/04/20 02:14:42;;;;;;;4.97;3.33;;;;;;;7.53;81.85;101316.28;5025587;28;20659;-53
2022/04/20 02:17:10;;;;;;;4.63;2.43;;;;;;;7.49;82.14;101309.25;5022983;28;20294;-52
2022/04/20 02:19:36;;;;;;;4.20;2.83;;;;;;;7.48;82.67;101304.88;5013501;28;20245;-52
2022/04/20 02:22:03;;;;;;;5.13;2.80;;;;;;;7.38;82.84;101305.53;5022890;28;20244;-53
2022/04/20 02:24:30;;;;;;;4.37;3.27;;;;;;;7.44;83.16;101307.38;5027143;28;20232;-53
2022/04/20 02:27:16;;;;;;;4.67;3.23;;;;;;;7.38;83.55;101305.53;5026228;28;20233;-52
2022/04/20 02:29:42;;;;;;;2.90;2.67;;;;;;;7.39;83.32;101310.78;5026005;28;20252;-53
2022/04/20 02:32:09;;;;;;;3.77;3.47;;;;;;;7.41;83.63;101305.59;5026841;28;20242;-53
2022/04/20 02:34:37;;;;;;;3.30;3.00;;;;;;;7.35;83.94;101308.97;5026598;28;20232;-53
2022/04/20 02:37:05;;;;;;;5.33;3.07;;;;;;;7.38;84.83;101305.53;5025473;28;20258;-53
2022/04/20 02:39:36;;;;;;;2.40;2.20;;;;;;;7.35;85.09;101303.72;5025862;28;20233;-52
2022/04/20 02:42:04;;;;;;;5.10;3.27;;;;;;;7.29;85.67;101308.81;5026155;28;20224;-53
2022/04/20 02:44:31;;;;;;;3.60;3.03;;;;;;;7.26;86.27;101305.25;5026819;28;20317;-52
2022/04/20 02:46:59;;;;;;;3.33;3.03;;;;;;;7.21;86.48;101310.38;5026697;28;20256;-53
2022/04/20 02:49:25;;;;;;;4.00;3.10;;;;;;;7.17;86.82;101306.81;5025900;28;20287;-52
2022/04/20 02:51:52;;;;;;;3.97;3.20;;;;;;;7.22;86.97;101303.44;5026192;28;20240;-52
2022/04/20 02:54:18;;;;;;;4.43;3.27;;;;;;;7.16;86.96;101299.84;5026012;28;20278;-52
2022/04/20 02:56:46;;;;;;;7.77;3.93;;;;;;;7.31;86.47;101299.28;5025835;28;20246;-53
2022/04/20 02:59:12;;;;;;;3.10;2.70;;;;;;;7.29;86.21;101302.72;5022487;28;20225;-53
2022/04/20 03:01:39;;;;;;;6.73;3.47;;;;;;;7.29;86.79;101307.94;5019470;28;20313;-53
2022/04/20 03:04:06;;;;;;;3.40;2.90;;;;;;;7.32;86.77;101314.09;5023085;28;20228;-53
2022/04/20 03:06:32;;;;;;;5.43;3.57;;;;;;;7.31;86.33;101308.88;5025107;28;20237;-53
2022/04/20 03:08:58;;;;;;;3.93;2.50;;;;;;;7.26;86.84;101316.59;5025505;28;20240;-51
2022/04/20 03:11:27;;;;;;;3.83;2.77;;;;;;;7.23;87.26;101311.31;5026361;28;20511;-52
2022/04/20 03:13:56;;;;;;;6.23;3.00;;;;;;;7.17;88.00;101306.81;5026196;28;20319;-54
2022/04/20 03:16:23;;;;;;;5.00;3.33;;;;;;;7.22;88.63;101306.03;5025711;28;20236;-52
2022/04/20 03:18:51;;;;;;;4.20;2.80;;;;;;;7.24;88.60;101304.38;5005426;28;20764;-52
2022/04/20 03:21:18;;;;;;;3.27;2.70;;;;;;;7.32;88.47;101298.44;5024555;28;20236;-53
2022/04/20 03:23:44;;;;;;;5.43;4.00;;;;;;;7.41;88.08;101296.03;5026204;28;20229;-52
2022/04/20 03:26:10;;;;;;;4.43;3.13;;;;;;;7.39;88.12;101291.63;5024974;28;20241;-53
2022/04/20 03:28:37;;;;;;;3.83;3.30;;;;;;;7.31;88.81;101301.91;5025122;28;20522;-52
2022/04/20 03:31:07;;;;;;;3.57;3.10;;;;;;;7.24;89.22;101304.38;5025588;28;20637;-53
2022/04/20 03:33:35;;;;;;;4.17;3.60;;;;;;;7.28;89.64;101307.06;5025515;28;20286;-53
2022/04/20 03:36:05;;;;;;;3.23;2.90;;;;;;;7.28;89.71;101306.19;5026015;28;20267;-55
2022/04/20 03:38:33;;;;;;;3.90;3.40;;;;;;;7.26;89.65;101315.69;5025133;28;20239;-53
2022/04/20 03:41:00;;;;;;;5.83;3.40;;;;;;;7.24;90.35;101314.81;5026499;28;20243;-54
2022/04/20 03:43:28;;;;;;;4.17;3.17;;;;;;;7.16;90.84;101315.53;5026652;28;20236;-52
2022/04/20 03:45:54;;;;;;;5.27;3.60;;;;;;;7.18;90.90;101316.41;5025306;28;20240;-54
2022/04/20 03:48:26;;;;;;;5.27;3.60;;;;;;;7.21;90.93;101318.22;5024878;28;20676;-54
2022/04/20 03:50:54;;;;;;;5.93;3.57;;;;;;;7.31;91.01;101319.31;5025753;28;20243;-53
2022/04/20 03:53:25;;;;;;;6.10;3.90;;;;;;;7.39;90.53;101330.81;5025219;28;20282;-54
2022/04/20 03:55:56;;;;;;;3.33;3.03;;;;;;;7.35;90.12;101318.53;5021142;28;20252;-53
2022/04/20 03:58:24;;;;;;;6.30;3.87;;;;;;;7.36;91.15;101312.44;5021065;28;20587;-52
2022/04/20 04:00:55;;;;;;;4.70;3.77;;;;;;;7.42;90.71;101323.03;5024937;28;20612;-52
2022/04/20 04:03:23;;;;;;;7.50;3.87;;;;;;;7.43;91.20;101318.69;5025469;28;20800;-52
2022/04/20 04:05:49;;;;;;;6.20;4.33;;;;;;;7.37;90.98;101307.28;5025586;28;20240;-52
2022/04/20 04:08:17;;;;;;;6.13;4.30;;;;;;;7.39;91.20;101312.50;5025306;28;20706;-52
2022/04/20 04:10:50;;;;;;;8.03;4.63;;;;;;;7.45;91.41;101317.00;5025474;28;20240;-53
2022/04/20 04:13:21;;;;;;;4.27;3.87;;;;;;;7.49;91.18;101306.63;5025880;28;20236;-53
2022/04/20 04:15:47;;;;;;;13.43;4.93;;;;;;;7.42;91.77;101309.97;5021710;28;20612;-52
2022/04/20 04:18:13;;;;;;;5.23;4.63;;;;;;;7.38;92.66;101314.25;5024906;28;20228;-53
2022/04/20 04:20:45;;;;;;;3.97;3.50;;;;;;;7.43;92.55;101306.50;5016529;28;20252;-52
2022/04/20 04:23:14;;;;;;;4.87;4.20;;;;;;;7.42;92.87;101309.97;5004735;28;20236;-52
2022/04/20 04:25:40;;;;;;;8.10;5.20;;;;;;;7.35;93.83;101308.06;5023022;28;20295;-52
2022/04/20 04:28:09;;;;;;;5.10;3.93;;;;;;;7.61;92.92;101304.25;5024192;28;20334;-52
2022/04/20 04:30:36;;;;;;;4.83;4.37;;;;;;;7.65;92.32;101298.28;5027785;28;20237;-53
2022/04/20 04:33:02;;;;;;;5.67;4.30;;;;;;;7.54;92.72;101294.53;5028892;28;20236;-54
2022/04/20 04:35:29;;;;;;;6.70;4.87;;;;;;;7.51;93.29;101297.13;5029766;28;20245;-53
2022/04/20 04:37:56;;;;;;;6.30;4.10;;;;;;;7.58;92.58;101299.00;5028937;28;20232;-53
2022/04/20 04:40:25;;;;;;;6.80;6.20;;;;;;;7.54;94.14;101286.69;5028600;28;20228;-53
2022/04/20 04:42:53;;;;;;;5.07;4.57;;;;;;;7.56;93.32;101289.34;5028782;28;20262;-52
2022/04/20 04:50:49;;;;;;;4.33;3.93;;;;;;;7.61;93.54;101296.41;5026495;28;20290;-53
2022/04/20 04:53:17;;;;;;;6.07;5.07;;;;;;;7.69;93.38;101300.91;5017809;28;20228;-53
2022/04/20 04:55:44;;;;;;;6.73;5.90;;;;;;;7.61;93.33;101304.25;5024909;28;20260;-53
2022/04/20 04:58:24;;;;;;;6.10;4.17;;;;;;;7.69;93.84;101300.91;5027947;28;20298;-53
2022/04/20 05:00:50;;;;;;;7.47;4.77;;;;;;;7.83;94.24;101297.75;5028416;28;20256;-53
2022/04/20 05:03:17;;;;;;;8.33;6.07;;;;;;;7.74;93.20;101294.06;5028171;28;20232;-53
2022/04/20 05:05:43;;;;;;;7.00;4.80;;;;;;;7.77;92.82;101288.91;5028014;28;20594;-53
2022/04/20 05:08:11;;;;;;;5.27;4.83;;;;;;;7.77;93.07;101297.63;5028323;28;20236;-53
2022/04/20 05:10:39;;;;;;;5.30;4.63;;;;;;;7.74;93.05;101296.69;5027280;28;20309;-52
2022/04/20 05:13:06;;;;;;;6.00;4.53;;;;;;;7.69;94.06;101300.91;5028361;28;20800;-52
2022/04/20 05:15:33;;;;;;;5.37;4.87;;;;;;;7.77;93.01;101309.81;5028022;28;20236;-54
2022/04/20 05:18:00;;;;;;;6.50;5.20;;;;;;;7.74;93.28;101307.13;5028919;28;20229;-53
2022/04/20 05:20:28;;;;;;;4.90;4.40;;;;;;;7.80;93.04;101299.41;5027415;28;20229;-54
2022/04/20 05:22:54;;;;;;;5.37;4.47;;;;;;;7.81;93.07;101309.88;5027988;28;20657;-55
2022/04/20 05:25:21;;;;;;;5.57;4.93;;;;;;;7.81;92.95;101306.41;5027979;28;20246;-52
2022/04/20 05:27:49;;;;;;;4.70;4.30;;;;;;;7.82;93.43;101300.31;5028504;28;20323;-52
2022/04/20 05:30:15;;;;;;;6.27;5.23;;;;;;;7.84;93.67;101311.69;5027697;28;20338;-53
2022/04/20 05:32:42;;;;;;;6.40;5.07;;;;;;;7.84;93.16;101306.47;5028042;28;20630;-53
2022/04/20 05:35:09;;;;;;;5.97;4.37;;;;;;;7.89;93.10;101302.19;5027559;28;20638;-52
2022/04/20 05:43:09;;;;;;;7.20;4.93;;;;;;;7.97;92.09;101307.56;5028044;28;20235;-52
2022/04/20 05:45:36;;;;;;;4.93;4.37;;;;;;;7.94;92.30;101312.75;5026885;28;20264;-53
2022/04/20 05:48:08;;;;;;;6.10;5.10;;;;;;;7.95;93.00;101314.50;5019088;28;20232;-54
2022/04/20 05:50:34;;;;;;;5.87;5.37;;;;;;;8.01;92.45;101306.78;5022817;28;20244;-52
2022/04/20 05:53:01;;;;;;;9.60;5.20;;;;;;;7.97;92.47;101316.31;5023787;28;20225;-53
2022/04/20 05:55:29;;;;;;;14.77;5.67;;;;;;;8.03;92.34;101313.78;5027732;28;20237;-53
2022/04/20 05:57:58;;;;;;;5.33;4.83;;;;;;;8.07;92.17;101309.50;5027003;28;20312;-53
2022/04/20 06:00:25;;;;;;;8.00;4.70;;;;;;;8.10;92.15;101315.66;5026458;28;20240;-52
2022/04/20 06:02:52;;;;;;;5.37;4.93;;;;;;;8.11;91.57;101316.56;5027622;28;20237;-52
2022/04/20 06:05:20;;;;;;;6.77;5.13;;;;;;;8.12;91.21;101315.72;5027621;28;20343;-54
2022/04/20 06:07:47;;;;;;;5.67;5.07;;;;;;;8.11;91.17;101322.69;5026693;28;20594;-53
2022/04/20 06:10:13;;;;;;;5.70;4.90;;;;;;;8.09;91.75;101324.38;5026395;28;20627;-53
2022/04/20 06:12:40;;;;;;;7.53;4.60;;;;;;;8.14;91.38;101329.69;5026507;28;20603;-53
2022/04/20 06:15:07;;;;;;;5.47;4.50;;;;;;;8.15;91.47;101322.75;5025438;28;20224;-53
2022/04/20 06:17:35;;;;;;;6.67;4.97;;;;;;;8.18;90.86;101320.16;5023182;28;20648;-52
2022/04/20 06:20:06;;;;;;;5.63;4.87;;;;;;;8.20;90.96;101329.78;5026783;28;20282;-53
2022/04/20 06:22:33;;;;;;;7.97;5.60;;;;;;;8.28;90.45;101324.69;5021818;28;20311;-53
2022/04/20 06:25:02;;;;;;;5.53;5.03;;;;;;;8.29;89.51;101327.34;5027570;28;20678;-53
2022/04/20 06:27:31;;;;;;;5.77;4.97;;;;;;;8.42;88.54;101331.09;5027070;28;20229;-53
2022/04/20 06:29:57;;;;;;;5.53;4.90;;;;;;;8.46;88.56;101324.16;5026089;28;20645;-53
2022/04/20 06:32:24;;;;;;;5.20;4.40;;;;;;;8.44;88.35;101326.78;5027111;28;20252;-53
2022/04/20 06:34:57;;;;;;;5.17;4.67;;;;;;;8.59;88.26;101316.53;5026359;28;20319;-53
2022/04/20 06:37:24;;;;;;;5.00;4.50;;;;;;;8.65;86.58;101314.91;5027203;28;20287;-52
2022/04/20 06:39:51;;;;;;;5.90;4.60;;;;;;;8.61;86.87;101316.59;5026081;28;20263;-52
2022/04/20 06:42:19;;;;;;;7.23;5.70;;;;;;;8.53;86.39;101318.19;5026131;28;20306;-53
2022/04/20 06:44:45;;;;;;;6.03;5.20;;;;;;;8.53;86.65;101324.31;5030518;28;20240;-54
2022/04/20 06:47:24;;;;;;;4.63;4.23;;;;;;;8.53;87.53;101324.31;5021363;28;20721;-53
2022/04/20 06:49:56;;;;;;;5.27;4.77;;;;;;;8.63;87.21;101311.38;5025395;28;20236;-54
2022/04/20 07:00:35;;;;;;;4.37;3.90;;;;;;;9.04;83.68;101304.16;5025404;28;20251;-53
2022/04/20 07:03:02;;;;;;;5.00;4.50;;;;;;;9.06;82.93;101302.44;5026390;28;20236;-52
2022/04/20 07:05:30;;;;;;;6.57;4.77;;;;;;;9.07;82.87;101307.69;5026271;28;20244;-52
2022/04/20 07:07:56;;;;;;;5.53;4.87;;;;;;;9.24;81.23;101309.69;5025679;28;20256;-52
2022/04/20 07:10:23;;;;;;;4.73;4.17;;;;;;;9.38;80.02;101309.88;5025775;28;20248;-53
2022/04/20 07:12:55;;;;;;;7.07;4.43;;;;;;;9.36;79.87;101301.97;5026604;28;20240;-52
2022/04/20 07:15:21;;;;;;;4.37;3.97;;;;;;;9.38;79.62;101305.50;5026368;28;20323;-53
2022/04/20 07:17:53;;;;;;;6.27;3.87;;;;;;;9.47;78.74;101310.84;5019447;28;20318;-53
2022/04/20 07:20:20;;;;;;;3.80;3.43;;;;;;;9.53;78.72;101315.28;5024752;28;20232;-53
2022/04/20 07:22:53;;;;;;;4.73;3.83;;;;;;;9.62;78.09;101307.56;5025655;28;20282;-52
2022/04/20 07:25:20;;;;;;;7.17;4.30;;;;;;;9.65;78.42;101309.31;5025886;28;20788;-52
2022/04/20 07:27:51;;;;;;;3.80;3.50;;;;;;;9.78;76.21;101312.09;5025799;28;20243;-53
2022/04/20 07:30:18;;;;;;;4.00;3.60;;;;;;;9.77;77.01;101315.59;5025125;28;20656;-53
2022/04/20 07:32:46;;;;;;;6.40;3.87;;;;;;;9.73;77.15;101307.69;5025905;28;20233;-53
2022/04/20 07:35:12;;;;;;;5.17;3.50;;;;;;;9.77;77.23;101318.22;5026213;28;20247;-52
2022/04/20 07:37:39;;;;;;;4.40;3.40;;;;;;;9.87;76.14;101313.09;5024758;28;20783;-53
2022/04/20 07:40:07;;;;;;;6.33;3.30;;;;;;;9.87;75.07;101316.59;5020950;28;20329;-54
2022/04/20 07:42:35;;;;;;;4.33;3.70;;;;;;;9.76;74.73;101310.34;5025504;28;20319;-53
2022/04/20 07:45:03;;;;;;;4.17;3.30;;;;;;;9.75;75.10;101319.06;4993060;28;20427;-52
2022/04/20 07:47:37;;;;;;;7.33;4.07;;;;;;;9.71;74.45;101325.13;5025992;28;20468;-52
2022/04/20 07:50:23;;;;;;;5.03;3.20;;;;;;;9.71;73.64;101317.25;5024717;28;20295;-53
2022/04/20 07:52:54;;;;;;;3.70;3.37;;;;;;;9.69;71.89;101316.38;5025992;28;20232;-53
2022/04/20 07:55:25;;;;;;;4.07;3.40;;;;;;;9.67;71.33;101313.72;5026096;28;20307;-53
2022/04/20 07:57:53;;;;;;;4.13;2.90;;;;;;;9.67;71.59;101307.59;5025522;28;20245;-53
2022/04/20 08:00:22;;;;;;;3.13;2.90;;;;;;;9.73;72.03;101310.31;5024790;28;20236;-53
2022/04/20 08:02:48;;;;;;;4.80;2.87;;;;;;;9.93;72.27;101310.50;5025829;28;20316;-53
2022/04/20 08:05:16;;;;;;;3.10;2.90;;;;;;;10.06;71.49;101314.16;5029260;28;20236;-53
2022/04/20 08:07:43;;;;;;;4.03;3.47;;;;;;;10.21;71.00;101312.59;5029671;28;20282;-53
2022/04/20 08:10:16;;;;;;;3.33;3.03;;;;;;;10.43;68.78;101310.19;5029054;28;20240;-53
2022/04/20 08:12:45;;;;;;;3.50;3.20;;;;;;;10.51;66.25;101311.13;5028026;28;20247;-53
2022/04/20 08:15:15;;;;;;;4.60;3.10;;;;;;;10.56;64.82;101306.78;5028010;28;20285;-53
2022/04/20 08:17:47;;;;;;;3.33;3.03;;;;;;;10.62;65.25;101314.72;5025661;28;20232;-53
2022/04/20 08:20:13;;;;;;;7.33;3.17;;;;;;;10.89;64.27;101313.16;5028557;28;20286;-53
2022/04/20 08:22:50;;;;;;;3.17;2.87;;;;;;;11.14;61.63;101319.47;5029320;28;20260;-52
2022/04/20 08:25:19;;;;;;;5.83;3.50;;;;;;;11.06;61.53;101315.91;5028968;28;20236;-53
2022/04/20 08:27:54;;;;;;;7.03;3.07;;;;;;;11.13;61.38;101307.19;5028739;28;20319;-52
2022/04/20 08:30:21;;;;;;;2.83;2.30;;;;;;;11.20;60.31;101319.50;5027705;28;20285;-52
2022/04/20 08:32:47;;;;;;;2.88;2.58;;;;;;;11.23;59.48;101308.97;5028350;28;20263;-53
2022/04/20 08:35:13;;;;;;;2.70;2.38;;;;;;;11.25;55.97;101312.50;5028731;28;20512;-53
2022/04/20 08:37:40;;;;;;;2.42;2.22;;;;;;;11.18;55.76;101300.19;5028563;28;20240;-53
2022/04/20 08:40:07;;;;;;;3.25;2.30;;;;;;;11.14;55.60;101309.81;5027996;28;20287;-53
2022/04/20 08:42:35;;;;;;;2.03;1.93;;;;;;;11.14;55.20;101301.94;5028805;28;20832;-53
2022/04/20 08:45:10;;;;;;;2.50;2.30;;;;;;;11.37;54.65;101312.59;5028850;28;20368;-53
2022/04/20 08:47:39;;;;;;;2.60;2.05;;;;;;;11.20;55.77;101298.47;5008499;28;20233;-52
2022/04/20 08:50:08;;;;;;;1.83;1.73;;;;;;;11.23;56.47;101301.09;5020593;28;20255;-52
2022/04/20 08:52:39;;;;;;;2.33;2.17;;;;;;;11.10;55.83;101315.06;5028629;28;20778;-53
2022/04/20 08:55:08;;;;;;;4.20;2.10;;;;;;;11.08;56.74;101301.91;5028366;28;20283;-52
2022/04/20 08:57:35;;;;;;;2.13;1.92;;;;;;;11.08;56.44;101304.53;5028411;28;20240;-53
2022/04/20 09:00:04;;;;;;;4.25;2.08;;;;;;;11.02;54.84;101298.34;5028481;28;20248;-53
2022/04/20 09:02:31;;;;;;;5.05;2.25;;;;;;;10.89;55.51;101308.78;5028788;28;20294;-54
2022/04/20 09:04:58;;;;;;;2.45;2.17;;;;;;;10.95;55.36;101307.94;5028696;28;20282;-53
2022/04/20 09:07:35;;;;;;;3.47;1.60;;;;;;;10.88;56.63;101307.03;5028583;28;20260;-53
2022/04/20 09:10:01;;;;;;;3.00;2.07;;;;;;;10.82;58.44;101306.13;5027655;28;20287;-54
2022/04/20 09:12:28;;;;;;;2.57;1.90;;;;;;;10.83;58.98;101308.75;5028647;28;20286;-53
2022/04/20 09:14:56;;;;;;;3.50;2.10;;;;;;;10.85;59.33;101312.28;5027508;28;20482;-53
2022/04/20 09:17:27;;;;;;;3.13;2.20;;;;;;;10.87;61.65;101310.50;5028406;28;20229;-53
2022/04/20 09:19:55;;;;;;;3.65;1.92;;;;;;;10.81;61.11;101305.25;5026715;28;20326;-54
2022/04/20 09:22:25;;;;;;;2.58;2.33;;;;;;;10.85;62.60;101309.66;5027873;28;20237;-53
2022/04/20 09:25:11;;;;;;;2.20;2.00;;;;;;;10.86;62.34;101311.38;5028032;28;20335;-52
2022/04/20 09:27:41;;;;;;;8.57;2.00;;;;;;;10.56;65.65;101311.16;5027436;28;20244;-52
2022/04/20 09:30:13;;;;;;;2.77;1.93;;;;;;;10.52;65.26;101313.75;5025707;28;20236;-53
2022/04/20 09:32:43;;;;;;;1.90;1.80;;;;;;;10.50;65.42;101320.75;5023676;28;20707;-54
2022/04/20 09:35:12;;;;;;;3.17;2.50;;;;;;;10.40;68.40;101324.16;5027559;28;20730;-53
2022/04/20 09:37:44;;;;;;;2.65;2.35;;;;;;;10.45;71.26;101316.31;5027392;28;20233;-54
2022/04/20 09:40:12;;;;;;;3.70;3.20;;;;;;;10.62;73.27;101316.47;5025297;28;20232;-52
2022/04/20 09:42:39;;;;;;;2.40;2.00;;;;;;;10.63;72.08;101310.31;5027666;28;20431;-53
2022/04/20 09:45:07;;;;;;;5.00;2.47;;;;;;;10.51;73.87;101303.25;5027317;28;20232;-54
2022/04/20 09:50:24;;;;;;;2.60;2.27;;;;;;;10.57;75.52;101300.69;5027066;28;20726;-54
2022/04/20 09:52:54;;;;;;;4.03;2.53;;;;;;;10.59;74.56;101296.28;5027755;28;20237;-54
2022/04/20 09:55:32;;;;;;;2.60;2.40;;;;;;;10.54;74.84;101294.53;5027848;28;20241;-53
2022/04/20 09:58:17;;;;;;;2.77;2.00;;;;;;;10.56;73.58;101303.28;5027353;28;20632;-53
2022/04/20 10:00:46;;;;;;;3.83;2.27;;;;;;;10.55;74.59;101301.53;5007710;28;20233;-53
2022/04/20 10:03:25;;;;;;;4.10;2.33;;;;;;;10.58;73.61;101302.44;5007757;28;20233;-54
2022/04/20 10:05:53;;;;;;;2.50;2.30;;;;;;;10.82;73.44;101301.75;5026622;28;20232;-52
2022/04/20 10:08:26;;;;;;;2.47;2.27;;;;;;;10.69;73.68;101300.75;5025889;28;20290;-54
2022/04/20 10:11:03;;;;;;;2.60;2.30;;;;;;;10.71;73.13;101301.66;5027565;28;20294;-52
2022/04/20 10:13:32;;;;;;;2.63;2.27;;;;;;;10.70;72.64;101296.38;5027574;28;20829;-53
2022/04/20 10:16:10;;;;;;;2.50;2.30;;;;;;;10.75;71.64;101289.44;5022914;28;20718;-54
2022/04/20 10:18:38;;;;;;;5.00;2.95;;;;;;;10.87;72.52;101296.50;5022459;28;20565;-53
2022/04/20 10:21:08;;;;;;;4.40;2.70;;;;;;;10.88;72.80;101295.63;5018612;28;20252;-53
2022/04/20 10:23:35;;;;;;;2.50;2.30;;;;;;;10.78;73.61;101291.22;5007380;28;20550;-53
2022/04/20 10:26:07;;;;;;;2.50;2.27;;;;;;;10.71;75.59;101279.78;5005261;28;20311;-53
2022/04/20 10:28:45;;;;;;;3.30;2.33;;;;;;;10.76;75.74;101275.41;5021215;28;20332;-53
2022/04/20 10:31:20;;;;;;;4.37;3.17;;;;;;;10.67;74.27;101268.38;5013918;28;20236;-53
2022/04/20 10:34:09;;;;;;;3.03;2.27;;;;;;;10.79;74.87;101262.31;5026466;28;20251;-53
2022/04/20 10:36:37;;;;;;;3.30;3.03;;;;;;;10.88;74.58;101258.84;5026449;28;20237;-53
2022/04/20 10:39:22;;;;;;;4.47;3.43;;;;;;;10.70;75.37;101249.09;5025879;28;20236;-52
2022/04/20 10:42:17;;;;;;;3.67;3.07;;;;;;;10.55;76.64;101239.38;5026632;28;20255;-53
2022/04/20 10:45:05;;;;;;;4.37;3.33;;;;;;;10.24;79.36;101246.09;5024843;28;20248;-53
2022/04/20 10:47:33;;;;;;;6.13;3.07;;;;;;;9.97;82.25;101250.25;5022249;28;20236;-52
2022/04/20 10:50:19;;;;;;;6.63;3.50;;;;;;;9.76;84.17;101234.31;5025989;28;20871;-53
2022/04/20 10:52:52;;;;;;;3.30;2.87;;;;;;;9.56;87.96;101241.94;5024675;28;20235;-53
2022/04/20 10:55:18;;;;;;;4.77;2.67;;;;;;;9.44;87.93;101240.06;5026565;28;20715;-52
2022/04/20 10:57:50;;;;;;;3.20;2.93;;;;;;;9.45;88.94;101231.34;5026030;28;20323;-53
2022/04/20 11:00:36;;;;;;;3.57;3.27;;;;;;;9.50;88.61;101227.00;5025643;28;20294;-53
2022/04/20 11:03:04;;;;;;;3.60;3.30;;;;;;;9.64;88.56;101218.44;5026230;28;20232;-54
2022/04/20 11:05:30;;;;;;;3.70;3.30;;;;;;;9.80;86.94;101220.34;5025392;28;20708;-56
2022/04/20 11:08:14;;;;;;;5.27;2.83;;;;;;;9.91;84.20;101218.69;5024302;28;20261;-52
2022/04/20 11:10:41;;;;;;;2.60;2.40;;;;;;;9.97;82.97;101226.63;5020854;28;20240;-53
2022/04/20 11:19:03;;;;;;;3.20;2.60;;;;;;;10.56;80.19;101221.88;5025191;28;20290;-53
2022/04/20 11:21:31;;;;;;;3.27;2.93;;;;;;;10.64;79.73;101212.31;5025599;28;20677;-53
2022/04/20 11:24:05;;;;;;;5.97;2.80;;;;;;;10.75;80.26;101208.00;5023345;28;20232;-54
2022/04/20 11:26:34;;;;;;;5.07;2.47;;;;;;;10.82;78.09;101212.44;5024447;28;20237;-53
2022/04/20 11:29:03;;;;;;;2.30;2.17;;;;;;;10.89;78.28;101214.22;5009703;28;20344;-53
2022/04/20 11:31:37;;;;;;;3.50;3.20;;;;;;;11.24;76.19;101213.50;5016474;28;20315;-54
2022/04/20 11:34:06;;;;;;;5.87;4.10;;;;;;;11.40;75.79;101220.56;4986966;28;20240;-52
2022/04/20 11:36:33;;;;;;;4.10;2.90;;;;;;;11.42;75.46;101224.09;5020197;28;20287;-52
2022/04/20 11:39:02;;;;;;;3.60;2.38;;;;;;;11.39;73.02;101215.31;5025206;28;20675;-53
2022/04/20 11:41:28;;;;;;;2.67;2.30;;;;;;;11.42;72.27;101195.16;5026234;28;20609;-53
2022/04/20 11:43:55;;;;;;;3.37;1.90;;;;;;;11.43;72.77;101193.41;5026143;28;20236;-53
2022/04/20 11:46:25;;;;;;;5.13;2.57;;;;;;;11.27;74.38;101194.22;5025267;28;20384;-52
2022/04/20 11:48:54;;;;;;;3.63;2.33;;;;;;;11.29;72.89;101193.38;5025206;28;20299;-53
2022/04/20 11:51:23;;;;;;;3.03;1.90;;;;;;;11.34;72.81;101185.50;5025706;28;20235;-53
2022/04/20 11:53:49;;;;;;;5.57;2.60;;;;;;;11.39;72.41;101181.13;5026496;28;20609;-53
2022/04/20 11:56:19;;;;;;;2.77;2.30;;;;;;;11.54;72.01;101183.78;5026039;28;20245;-53
2022/04/20 11:58:51;;;;;;;2.35;2.15;;;;;;;11.60;70.49;101183.81;5024217;28;20559;-53
2022/04/20 12:01:18;;;;;;;3.58;2.17;;;;;;;11.76;68.72;101179.47;5025798;28;20224;-52
2022/04/20 12:03:49;;;;;;;3.40;2.40;;;;;;;11.82;68.50;101176.81;5025494;28;20260;-52
2022/04/20 12:06:16;;;;;;;2.60;2.40;;;;;;;11.88;69.50;101176.00;5025554;28;20897;-53
2022/04/20 12:08:42;;;;;;;2.70;2.50;;;;;;;11.91;69.02;101171.59;5024343;28;20244;-53
2022/04/20 12:11:11;;;;;;;2.63;2.42;;;;;;;11.82;68.92;101179.44;5025249;28;20287;-54